sensor_id;sensor_type;location;lat;lon;timestamp;temperature;humidity
16635;DHT22;8431;52.458;9.998;2023-01-15T00:01:21;9.90;99.90
16635;DHT22;8431;52.458;9.998;2023-01-15T00:03:50;9.70;99.90
16635;DHT22;8431;52.458;9.998;2023-01-15T00:06:18;9.60;99.90
16635;DHT22;8431;52.458;9.998;2023-01-15T00:08:46;9.30;99.90
16635;DHT22;8431;52.458;9.998;2023-01-15T00:11:14;9.10;99.90
16635;DHT22;8431;52.458;9.998;2023-01-15T00:13:41;8.90;99.90
16635;DHT22;8431;52.458;9.998;2023-01-15T00:16:10;8.90;99.90
16635;DHT22;8431;52.458;9.998;2023-01-15T00:18:39;8.70;99.90
16635;DHT22;8431;52.458;9.998;2023-01-15T00:21:10;8.60;99.90
16635;DHT22;8431;52.458;9.998;2023-01-15T00:23:38;8.30;99.90
16635;DHT22;8431;52.458;9.998;2023-01-15T00:26:28;8.10;99.90
16635;DHT22;8431;52.458;9.998;2023-01-15T00:29:15;7.90;99.90
16635;DHT22;8431;52.458;9.998;2023-01-15T00:31:50;7.70;99.90
16635;DHT22;8431;52.458;9.998;2023-01-15T00:34:19;7.50;99.90
16635;DHT22;8431;52.458;9.998;2023-01-15T00:36:49;7.40;99.90
16635;DHT22;8431;52.458;9.998;2023-01-15T00:39:17;7.30;99.90
16635;DHT22;8431;52.458;9.998;2023-01-15T00:41:44;7.20;99.90
16635;DHT22;8431;52.458;9.998;2023-01-15T00:44:11;7.10;99.90
16635;DHT22;8431;52.458;9.998;2023-01-15T00:46:38;7.00;99.90
16635;DHT22;8431;52.458;9.998;2023-01-15T00:49:06;6.90;99.90
16635;DHT22;8431;52.458;9.998;2023-01-15T00:51:42;6.90;99.90
16635;DHT22;8431;52.458;9.998;2023-01-15T00:54:09;6.80;99.90
16635;DHT22;8431;52.458;9.998;2023-01-15T00:56:36;6.70;99.90
16635;DHT22;8431;52.458;9.998;2023-01-15T00:59:04;6.60;99.90
16635;DHT22;8431;52.458;9.998;2023-01-15T01:01:31;6.50;99.90
16635;DHT22;8431;52.458;9.998;2023-01-15T01:03:58;6.40;99.90
16635;DHT22;8431;52.458;9.998;2023-01-15T01:06:25;6.30;99.90
16635;DHT22;8431;52.458;9.998;2023-01-15T01:08:54;6.30;99.90
16635;DHT22;8431;52.458;9.998;2023-01-15T01:11:23;6.20;99.90
16635;DHT22;8431;52.458;9.998;2023-01-15T01:13:51;6.10;99.90
16635;DHT22;8431;52.458;9.998;2023-01-15T01:16:24;6.10;99.90
16635;DHT22;8431;52.458;9.998;2023-01-15T01:18:51;6.10;99.90
16635;DHT22;8431;52.458;9.998;2023-01-15T01:21:18;6.10;99.90
16635;DHT22;8431;52.458;9.998;2023-01-15T01:23:46;6.00;99.90
16635;DHT22;8431;52.458;9.998;2023-01-15T01:26:14;6.00;99.90
16635;DHT22;8431;52.458;9.998;2023-01-15T01:28:42;5.90;99.90
16635;DHT22;8431;52.458;9.998;2023-01-15T01:31:09;5.90;99.90
16635;DHT22;8431;52.458;9.998;2023-01-15T01:33:36;6.00;99.90
16635;DHT22;8431;52.458;9.998;2023-01-15T01:36:03;5.90;99.90
16635;DHT22;8431;52.458;9.998;2023-01-15T01:38:33;5.90;99.90
16635;DHT22;8431;52.458;9.998;2023-01-15T01:41:00;5.90;99.90
16635;DHT22;8431;52.458;9.998;2023-01-15T01:43:29;5.90;99.90
16635;DHT22;8431;52.458;9.998;2023-01-15T01:45:56;5.90;99.90
16635;DHT22;8431;52.458;9.998;2023-01-15T01:48:27;5.80;99.90
16635;DHT22;8431;52.458;9.998;2023-01-15T01:50:55;5.90;99.90
16635;DHT22;8431;52.458;9.998;2023-01-15T01:53:26;5.80;99.90
16635;DHT22;8431;52.458;9.998;2023-01-15T01:55:55;5.80;99.90
16635;DHT22;8431;52.458;9.998;2023-01-15T01:58:26;5.80;99.90
16635;DHT22;8431;52.458;9.998;2023-01-15T02:00:56;5.80;99.90
16635;DHT22;8431;52.458;9.998;2023-01-15T02:03:26;5.70;99.90
16635;DHT22;8431;52.458;9.998;2023-01-15T02:05:59;5.70;99.90
16635;DHT22;8431;52.458;9.998;2023-01-15T02:08:27;5.70;99.90
16635;DHT22;8431;52.458;9.998;2023-01-15T02:10:58;5.60;99.90
16635;DHT22;8431;52.458;9.998;2023-01-15T02:13:31;5.60;99.90
16635;DHT22;8431;52.458;9.998;2023-01-15T02:16:07;5.50;99.90
16635;DHT22;8431;52.458;9.998;2023-01-15T02:18:42;5.50;99.90
16635;DHT22;8431;52.458;9.998;2023-01-15T02:21:19;5.40;99.90
16635;DHT22;8431;52.458;9.998;2023-01-15T02:24:05;5.40;99.90
16635;DHT22;8431;52.458;9.998;2023-01-15T02:27:00;5.30;99.90
16635;DHT22;8431;52.458;9.998;2023-01-15T02:32:17;5.30;99.90
16635;DHT22;8431;52.458;9.998;2023-01-15T02:34:48;5.20;99.90
16635;DHT22;8431;52.458;9.998;2023-01-15T02:37:23;5.20;99.90
16635;DHT22;8431;52.458;9.998;2023-01-15T02:39:52;5.20;99.90
16635;DHT22;8431;52.458;9.998;2023-01-15T02:42:22;5.20;99.90
16635;DHT22;8431;52.458;9.998;2023-01-15T02:44:52;5.20;99.90
16635;DHT22;8431;52.458;9.998;2023-01-15T02:47:23;5.20;99.90
16635;DHT22;8431;52.458;9.998;2023-01-15T02:49:52;5.20;99.90
16635;DHT22;8431;52.458;9.998;2023-01-15T02:52:24;5.20;99.90
16635;DHT22;8431;52.458;9.998;2023-01-15T02:54:55;5.20;99.90
16635;DHT22;8431;52.458;9.998;2023-01-15T02:57:27;5.20;99.90
16635;DHT22;8431;52.458;9.998;2023-01-15T02:59:56;5.20;99.90
16635;DHT22;8431;52.458;9.998;2023-01-15T03:02:28;5.20;99.90
16635;DHT22;8431;52.458;9.998;2023-01-15T03:05:01;5.20;99.90
16635;DHT22;8431;52.458;9.998;2023-01-15T03:07:34;5.20;99.90
16635;DHT22;8431;52.458;9.998;2023-01-15T03:10:03;5.20;99.90
16635;DHT22;8431;52.458;9.998;2023-01-15T03:12:40;5.10;99.90
16635;DHT22;8431;52.458;9.998;2023-01-15T03:15:24;5.10;99.90
16635;DHT22;8431;52.458;9.998;2023-01-15T03:18:08;5.10;99.90
16635;DHT22;8431;52.458;9.998;2023-01-15T03:20:40;5.10;99.90
16635;DHT22;8431;52.458;9.998;2023-01-15T03:23:11;5.10;99.90
16635;DHT22;8431;52.458;9.998;2023-01-15T03:25:44;5.10;99.90
16635;DHT22;8431;52.458;9.998;2023-01-15T03:28:16;5.10;99.90
16635;DHT22;8431;52.458;9.998;2023-01-15T03:30:46;5.10;99.90
16635;DHT22;8431;52.458;9.998;2023-01-15T03:33:13;5.10;99.90
16635;DHT22;8431;52.458;9.998;2023-01-15T03:35:47;5.10;99.90
16635;DHT22;8431;52.458;9.998;2023-01-15T03:38:16;5.10;99.90
16635;DHT22;8431;52.458;9.998;2023-01-15T03:40:49;5.10;99.90
16635;DHT22;8431;52.458;9.998;2023-01-15T03:43:23;5.10;99.90
16635;DHT22;8431;52.458;9.998;2023-01-15T03:46:18;5.20;99.90
16635;DHT22;8431;52.458;9.998;2023-01-15T03:48:54;5.20;99.90
16635;DHT22;8431;52.458;9.998;2023-01-15T03:51:26;5.20;99.90
16635;DHT22;8431;52.458;9.998;2023-01-15T03:53:57;5.20;99.90
16635;DHT22;8431;52.458;9.998;2023-01-15T03:56:31;5.20;99.90
16635;DHT22;8431;52.458;9.998;2023-01-15T03:59:06;5.20;99.90
16635;DHT22;8431;52.458;9.998;2023-01-15T04:01:35;5.20;99.90
16635;DHT22;8431;52.458;9.998;2023-01-15T04:04:04;5.20;99.90
16635;DHT22;8431;52.458;9.998;2023-01-15T04:06:34;5.20;99.90
16635;DHT22;8431;52.458;9.998;2023-01-15T04:09:03;5.20;99.90
16635;DHT22;8431;52.458;9.998;2023-01-15T04:11:32;5.20;99.90
16635;DHT22;8431;52.458;9.998;2023-01-15T04:13:59;5.20;99.90
16635;DHT22;8431;52.458;9.998;2023-01-15T04:16:29;5.20;99.90
16635;DHT22;8431;52.458;9.998;2023-01-15T04:18:57;5.20;99.90
16635;DHT22;8431;52.458;9.998;2023-01-15T04:21:25;5.20;99.90
16635;DHT22;8431;52.458;9.998;2023-01-15T04:23:52;5.20;99.90
16635;DHT22;8431;52.458;9.998;2023-01-15T04:26:19;5.20;99.90
16635;DHT22;8431;52.458;9.998;2023-01-15T04:28:46;5.20;99.90
16635;DHT22;8431;52.458;9.998;2023-01-15T04:31:13;5.20;99.90
16635;DHT22;8431;52.458;9.998;2023-01-15T04:33:42;5.20;99.90
16635;DHT22;8431;52.458;9.998;2023-01-15T04:36:09;5.20;99.90
16635;DHT22;8431;52.458;9.998;2023-01-15T04:38:36;5.20;99.90
16635;DHT22;8431;52.458;9.998;2023-01-15T04:41:04;5.30;99.90
16635;DHT22;8431;52.458;9.998;2023-01-15T04:43:49;5.20;99.90
16635;DHT22;8431;52.458;9.998;2023-01-15T04:46:35;5.20;99.90
16635;DHT22;8431;52.458;9.998;2023-01-15T04:49:04;5.30;99.90
16635;DHT22;8431;52.458;9.998;2023-01-15T04:51:32;5.30;99.90
16635;DHT22;8431;52.458;9.998;2023-01-15T04:54:01;5.30;99.90
16635;DHT22;8431;52.458;9.998;2023-01-15T04:56:28;5.30;99.90
16635;DHT22;8431;52.458;9.998;2023-01-15T04:58:58;5.30;99.90
16635;DHT22;8431;52.458;9.998;2023-01-15T05:01:25;5.40;99.90
16635;DHT22;8431;52.458;9.998;2023-01-15T05:03:52;5.30;99.90
16635;DHT22;8431;52.458;9.998;2023-01-15T05:06:20;5.40;99.90
16635;DHT22;8431;52.458;9.998;2023-01-15T05:08:47;5.40;99.90
16635;DHT22;8431;52.458;9.998;2023-01-15T05:11:14;5.40;99.90
16635;DHT22;8431;52.458;9.998;2023-01-15T05:13:41;5.30;99.90
16635;DHT22;8431;52.458;9.998;2023-01-15T05:16:11;5.30;99.90
16635;DHT22;8431;52.458;9.998;2023-01-15T05:18:39;5.30;99.90
16635;DHT22;8431;52.458;9.998;2023-01-15T05:21:12;5.30;99.90
16635;DHT22;8431;52.458;9.998;2023-01-15T05:23:41;5.40;99.90
16635;DHT22;8431;52.458;9.998;2023-01-15T05:26:08;5.30;99.90
16635;DHT22;8431;52.458;9.998;2023-01-15T05:28:35;5.30;99.90
16635;DHT22;8431;52.458;9.998;2023-01-15T05:31:06;5.40;99.90
16635;DHT22;8431;52.458;9.998;2023-01-15T05:33:35;5.50;99.90
16635;DHT22;8431;52.458;9.998;2023-01-15T05:36:03;5.40;99.90
16635;DHT22;8431;52.458;9.998;2023-01-15T05:38:30;5.40;99.90
16635;DHT22;8431;52.458;9.998;2023-01-15T05:41:02;5.50;99.90
16635;DHT22;8431;52.458;9.998;2023-01-15T05:43:49;5.50;99.90
16635;DHT22;8431;52.458;9.998;2023-01-15T05:46:16;5.50;99.90
16635;DHT22;8431;52.458;9.998;2023-01-15T05:48:43;5.50;99.90
16635;DHT22;8431;52.458;9.998;2023-01-15T05:51:10;5.50;99.90
16635;DHT22;8431;52.458;9.998;2023-01-15T05:53:37;5.40;99.90
16635;DHT22;8431;52.458;9.998;2023-01-15T05:56:07;5.40;99.90
16635;DHT22;8431;52.458;9.998;2023-01-15T05:58:42;5.50;99.90
16635;DHT22;8431;52.458;9.998;2023-01-15T06:01:10;5.40;99.90
16635;DHT22;8431;52.458;9.998;2023-01-15T06:03:37;5.50;99.90
16635;DHT22;8431;52.458;9.998;2023-01-15T06:06:09;5.50;99.90
16635;DHT22;8431;52.458;9.998;2023-01-15T06:08:38;5.50;99.90
16635;DHT22;8431;52.458;9.998;2023-01-15T06:11:06;5.50;99.90
16635;DHT22;8431;52.458;9.998;2023-01-15T06:13:33;5.50;99.90
16635;DHT22;8431;52.458;9.998;2023-01-15T06:16:01;5.50;99.90
16635;DHT22;8431;52.458;9.998;2023-01-15T06:18:28;5.50;99.90
16635;DHT22;8431;52.458;9.998;2023-01-15T06:20:55;5.60;99.90
16635;DHT22;8431;52.458;9.998;2023-01-15T06:23:22;5.60;99.90
16635;DHT22;8431;52.458;9.998;2023-01-15T06:25:49;5.60;99.90
16635;DHT22;8431;52.458;9.998;2023-01-15T06:28:18;5.60;99.90
16635;DHT22;8431;52.458;9.998;2023-01-15T06:30:45;5.60;99.90
16635;DHT22;8431;52.458;9.998;2023-01-15T06:33:12;5.60;99.90
16635;DHT22;8431;52.458;9.998;2023-01-15T06:35:39;5.70;99.90
16635;DHT22;8431;52.458;9.998;2023-01-15T06:38:06;5.70;99.90
16635;DHT22;8431;52.458;9.998;2023-01-15T06:40:33;5.70;99.90
16635;DHT22;8431;52.458;9.998;2023-01-15T06:43:00;5.70;99.90
16635;DHT22;8431;52.458;9.998;2023-01-15T06:45:45;5.70;99.90
16635;DHT22;8431;52.458;9.998;2023-01-15T06:48:44;5.70;99.90
16635;DHT22;8431;52.458;9.998;2023-01-15T06:51:12;5.60;99.90
16635;DHT22;8431;52.458;9.998;2023-01-15T06:53:43;5.70;99.90
16635;DHT22;8431;52.458;9.998;2023-01-15T06:56:11;5.70;99.90
16635;DHT22;8431;52.458;9.998;2023-01-15T06:58:39;5.80;99.90
16635;DHT22;8431;52.458;9.998;2023-01-15T07:01:09;5.90;99.90
16635;DHT22;8431;52.458;9.998;2023-01-15T07:03:37;5.90;99.90
16635;DHT22;8431;52.458;9.998;2023-01-15T07:06:08;5.80;99.90
16635;DHT22;8431;52.458;9.998;2023-01-15T07:08:36;5.70;99.90
16635;DHT22;8431;52.458;9.998;2023-01-15T07:11:04;5.70;99.90
16635;DHT22;8431;52.458;9.998;2023-01-15T07:13:32;5.80;99.90
16635;DHT22;8431;52.458;9.998;2023-01-15T07:15:59;5.70;99.90
16635;DHT22;8431;52.458;9.998;2023-01-15T07:18:29;5.70;99.90
16635;DHT22;8431;52.458;9.998;2023-01-15T07:20:57;5.70;99.90
16635;DHT22;8431;52.458;9.998;2023-01-15T07:23:25;5.70;99.90
16635;DHT22;8431;52.458;9.998;2023-01-15T07:25:53;5.60;99.90
16635;DHT22;8431;52.458;9.998;2023-01-15T07:28:21;5.60;99.90
16635;DHT22;8431;52.458;9.998;2023-01-15T07:30:48;5.60;99.90
16635;DHT22;8431;52.458;9.998;2023-01-15T07:33:15;5.70;99.90
16635;DHT22;8431;52.458;9.998;2023-01-15T07:35:43;5.70;99.90
16635;DHT22;8431;52.458;9.998;2023-01-15T07:38:10;5.70;99.90
16635;DHT22;8431;52.458;9.998;2023-01-15T07:40:38;5.70;99.90
16635;DHT22;8431;52.458;9.998;2023-01-15T07:43:05;5.70;99.90
16635;DHT22;8431;52.458;9.998;2023-01-15T07:45:49;5.70;99.90
16635;DHT22;8431;52.458;9.998;2023-01-15T07:48:33;5.60;99.90
16635;DHT22;8431;52.458;9.998;2023-01-15T07:51:19;5.80;99.90
16635;DHT22;8431;52.458;9.998;2023-01-15T07:53:46;5.80;99.90
16635;DHT22;8431;52.458;9.998;2023-01-15T07:56:14;5.80;99.90
16635;DHT22;8431;52.458;9.998;2023-01-15T07:58:42;5.70;99.90
16635;DHT22;8431;52.458;9.998;2023-01-15T08:01:13;5.70;99.90
16635;DHT22;8431;52.458;9.998;2023-01-15T08:03:40;5.70;99.90
16635;DHT22;8431;52.458;9.998;2023-01-15T08:06:07;5.70;99.90
16635;DHT22;8431;52.458;9.998;2023-01-15T08:08:36;5.70;99.90
16635;DHT22;8431;52.458;9.998;2023-01-15T08:11:03;5.80;99.90
16635;DHT22;8431;52.458;9.998;2023-01-15T08:13:48;5.70;99.90
16635;DHT22;8431;52.458;9.998;2023-01-15T08:16:34;5.70;99.90
16635;DHT22;8431;52.458;9.998;2023-01-15T08:19:01;5.70;99.90
16635;DHT22;8431;52.458;9.998;2023-01-15T08:21:29;5.70;99.90
16635;DHT22;8431;52.458;9.998;2023-01-15T08:23:57;5.80;99.90
16635;DHT22;8431;52.458;9.998;2023-01-15T08:26:24;5.90;99.90
16635;DHT22;8431;52.458;9.998;2023-01-15T08:28:52;5.90;99.90
16635;DHT22;8431;52.458;9.998;2023-01-15T08:31:19;5.90;99.90
16635;DHT22;8431;52.458;9.998;2023-01-15T08:33:46;5.80;99.90
16635;DHT22;8431;52.458;9.998;2023-01-15T08:36:12;5.80;99.90
16635;DHT22;8431;52.458;9.998;2023-01-15T08:38:44;5.70;99.90
16635;DHT22;8431;52.458;9.998;2023-01-15T08:41:15;5.70;99.90
16635;DHT22;8431;52.458;9.998;2023-01-15T08:43:42;5.90;99.90
16635;DHT22;8431;52.458;9.998;2023-01-15T08:46:10;5.90;99.90
16635;DHT22;8431;52.458;9.998;2023-01-15T08:48:37;6.00;99.90
16635;DHT22;8431;52.458;9.998;2023-01-15T08:51:05;6.00;99.90
16635;DHT22;8431;52.458;9.998;2023-01-15T08:53:33;6.10;99.90
16635;DHT22;8431;52.458;9.998;2023-01-15T08:56:00;6.10;99.90
16635;DHT22;8431;52.458;9.998;2023-01-15T08:58:29;6.10;99.90
16635;DHT22;8431;52.458;9.998;2023-01-15T09:01:03;6.00;99.90
16635;DHT22;8431;52.458;9.998;2023-01-15T09:03:30;6.10;99.90
16635;DHT22;8431;52.458;9.998;2023-01-15T09:05:57;6.20;99.90
16635;DHT22;8431;52.458;9.998;2023-01-15T09:08:25;6.20;99.90
16635;DHT22;8431;52.458;9.998;2023-01-15T09:11:07;6.10;99.90
16635;DHT22;8431;52.458;9.998;2023-01-15T09:13:36;6.10;99.90
16635;DHT22;8431;52.458;9.998;2023-01-15T09:16:07;6.20;99.90
16635;DHT22;8431;52.458;9.998;2023-01-15T09:18:36;6.20;99.90
16635;DHT22;8431;52.458;9.998;2023-01-15T09:21:04;6.30;99.90
16635;DHT22;8431;52.458;9.998;2023-01-15T09:23:31;6.40;99.90
16635;DHT22;8431;52.458;9.998;2023-01-15T09:25:59;6.40;99.90
16635;DHT22;8431;52.458;9.998;2023-01-15T09:28:27;6.40;99.90
16635;DHT22;8431;52.458;9.998;2023-01-15T09:30:56;6.40;99.90
16635;DHT22;8431;52.458;9.998;2023-01-15T09:33:23;6.30;99.90
16635;DHT22;8431;52.458;9.998;2023-01-15T09:35:50;6.30;99.90
16635;DHT22;8431;52.458;9.998;2023-01-15T09:38:19;6.30;99.90
16635;DHT22;8431;52.458;9.998;2023-01-15T09:40:50;6.30;99.90
16635;DHT22;8431;52.458;9.998;2023-01-15T09:43:28;6.40;99.90
16635;DHT22;8431;52.458;9.998;2023-01-15T09:46:08;6.50;99.90
16635;DHT22;8431;52.458;9.998;2023-01-15T09:48:44;6.50;99.90
16635;DHT22;8431;52.458;9.998;2023-01-15T09:51:20;6.50;99.90
16635;DHT22;8431;52.458;9.998;2023-01-15T09:54:00;6.50;99.90
16635;DHT22;8431;52.458;9.998;2023-01-15T09:56:32;6.50;99.90
16635;DHT22;8431;52.458;9.998;2023-01-15T09:59:05;6.40;99.90
16635;DHT22;8431;52.458;9.998;2023-01-15T10:01:39;6.50;99.90
16635;DHT22;8431;52.458;9.998;2023-01-15T10:04:16;6.50;99.90
16635;DHT22;8431;52.458;9.998;2023-01-15T10:06:50;6.60;99.90
16635;DHT22;8431;52.458;9.998;2023-01-15T10:15:24;6.80;99.90
16635;DHT22;8431;52.458;9.998;2023-01-15T10:17:55;6.90;99.90
16635;DHT22;8431;52.458;9.998;2023-01-15T10:20:47;7.00;99.90
16635;DHT22;8431;52.458;9.998;2023-01-15T10:23:41;7.10;99.90
16635;DHT22;8431;52.458;9.998;2023-01-15T10:26:13;7.20;99.90
16635;DHT22;8431;52.458;9.998;2023-01-15T10:28:58;7.30;99.90
16635;DHT22;8431;52.458;9.998;2023-01-15T10:31:50;7.30;99.90
16635;DHT22;8431;52.458;9.998;2023-01-15T10:34:47;7.20;99.90
16635;DHT22;8431;52.458;9.998;2023-01-15T10:37:26;7.20;99.90
16635;DHT22;8431;52.458;9.998;2023-01-15T10:40:10;7.10;99.90
16635;DHT22;8431;52.458;9.998;2023-01-15T10:42:58;7.10;99.90
16635;DHT22;8431;52.458;9.998;2023-01-15T10:45:31;7.00;99.90
16635;DHT22;8431;52.458;9.998;2023-01-15T10:48:07;6.90;99.90
16635;DHT22;8431;52.458;9.998;2023-01-15T10:50:37;6.90;99.90
16635;DHT22;8431;52.458;9.998;2023-01-15T10:53:13;6.80;99.90
16635;DHT22;8431;52.458;9.998;2023-01-15T10:55:44;6.90;99.90
16635;DHT22;8431;52.458;9.998;2023-01-15T10:58:19;7.00;99.90
16635;DHT22;8431;52.458;9.998;2023-01-15T11:00:52;7.00;99.90
16635;DHT22;8431;52.458;9.998;2023-01-15T11:03:29;7.00;99.90
16635;DHT22;8431;52.458;9.998;2023-01-15T11:05:59;7.00;99.90
16635;DHT22;8431;52.458;9.998;2023-01-15T11:08:26;7.10;99.90
16635;DHT22;8431;52.458;9.998;2023-01-15T11:10:55;7.20;99.90
16635;DHT22;8431;52.458;9.998;2023-01-15T11:13:25;7.30;99.90
16635;DHT22;8431;52.458;9.998;2023-01-15T11:16:13;7.20;99.90
16635;DHT22;8431;52.458;9.998;2023-01-15T11:19:01;7.10;99.90
16635;DHT22;8431;52.458;9.998;2023-01-15T11:21:47;7.10;99.90
16635;DHT22;8431;52.458;9.998;2023-01-15T11:24:16;7.20;99.90
16635;DHT22;8431;52.458;9.998;2023-01-15T11:26:46;7.30;99.90
16635;DHT22;8431;52.458;9.998;2023-01-15T11:29:19;7.20;99.90
16635;DHT22;8431;52.458;9.998;2023-01-15T11:31:52;7.20;99.90
16635;DHT22;8431;52.458;9.998;2023-01-15T11:34:20;7.20;99.90
16635;DHT22;8431;52.458;9.998;2023-01-15T11:37:00;7.10;99.90
16635;DHT22;8431;52.458;9.998;2023-01-15T11:39:31;7.10;99.90
16635;DHT22;8431;52.458;9.998;2023-01-15T11:41:59;7.20;99.90
16635;DHT22;8431;52.458;9.998;2023-01-15T11:44:51;7.40;99.90
16635;DHT22;8431;52.458;9.998;2023-01-15T11:47:36;7.40;99.90
16635;DHT22;8431;52.458;9.998;2023-01-15T11:50:20;7.40;99.90
16635;DHT22;8431;52.458;9.998;2023-01-15T11:53:08;7.40;99.90
16635;DHT22;8431;52.458;9.998;2023-01-15T11:55:39;7.40;99.90
16635;DHT22;8431;52.458;9.998;2023-01-15T11:58:08;7.40;99.90
16635;DHT22;8431;52.458;9.998;2023-01-15T12:00:40;7.50;99.90
16635;DHT22;8431;52.458;9.998;2023-01-15T12:03:15;7.70;99.90
16635;DHT22;8431;52.458;9.998;2023-01-15T12:05:46;7.60;99.90
16635;DHT22;8431;52.458;9.998;2023-01-15T12:08:21;7.60;99.90
16635;DHT22;8431;52.458;9.998;2023-01-15T12:10:54;7.70;99.90
16635;DHT22;8431;52.458;9.998;2023-01-15T12:13:38;7.80;99.90
16635;DHT22;8431;52.458;9.998;2023-01-15T12:16:13;7.80;99.90
16635;DHT22;8431;52.458;9.998;2023-01-15T12:18:53;7.70;99.90
16635;DHT22;8431;52.458;9.998;2023-01-15T12:21:52;7.60;99.90
16635;DHT22;8431;52.458;9.998;2023-01-15T12:24:49;7.60;99.90
16635;DHT22;8431;52.458;9.998;2023-01-15T12:27:39;7.60;99.90
16635;DHT22;8431;52.458;9.998;2023-01-15T12:30:18;7.70;99.90
16635;DHT22;8431;52.458;9.998;2023-01-15T12:32:57;7.70;99.90
16635;DHT22;8431;52.458;9.998;2023-01-15T12:35:29;7.70;99.90
16635;DHT22;8431;52.458;9.998;2023-01-15T12:37:58;7.60;99.90
16635;DHT22;8431;52.458;9.998;2023-01-15T12:40:34;7.60;99.90
16635;DHT22;8431;52.458;9.998;2023-01-15T12:43:02;7.70;99.90
16635;DHT22;8431;52.458;9.998;2023-01-15T12:45:49;7.70;99.90
16635;DHT22;8431;52.458;9.998;2023-01-15T12:48:24;7.70;99.90
16635;DHT22;8431;52.458;9.998;2023-01-15T12:50:58;7.60;99.90
16635;DHT22;8431;52.458;9.998;2023-01-15T12:53:30;7.70;99.90
16635;DHT22;8431;52.458;9.998;2023-01-15T12:56:05;7.70;99.90
16635;DHT22;8431;52.458;9.998;2023-01-15T12:58:41;7.60;99.90
16635;DHT22;8431;52.458;9.998;2023-01-15T13:01:14;7.60;99.90
16635;DHT22;8431;52.458;9.998;2023-01-15T13:04:02;7.50;99.90
16635;DHT22;8431;52.458;9.998;2023-01-15T13:06:30;7.40;99.90
16635;DHT22;8431;52.458;9.998;2023-01-15T13:09:02;7.40;99.90
16635;DHT22;8431;52.458;9.998;2023-01-15T13:11:35;7.40;99.90
16635;DHT22;8431;52.458;9.998;2023-01-15T13:14:02;7.30;99.90
16635;DHT22;8431;52.458;9.998;2023-01-15T13:16:39;7.30;99.90
16635;DHT22;8431;52.458;9.998;2023-01-15T13:21:59;7.30;99.90
16635;DHT22;8431;52.458;9.998;2023-01-15T13:25:00;7.30;99.90
16635;DHT22;8431;52.458;9.998;2023-01-15T13:27:46;7.30;99.90
16635;DHT22;8431;52.458;9.998;2023-01-15T13:30:28;7.30;99.90
16635;DHT22;8431;52.458;9.998;2023-01-15T13:33:03;7.30;99.90
16635;DHT22;8431;52.458;9.998;2023-01-15T13:35:36;7.30;99.90
16635;DHT22;8431;52.458;9.998;2023-01-15T13:38:16;7.30;99.90
16635;DHT22;8431;52.458;9.998;2023-01-15T13:40:46;7.20;99.90
16635;DHT22;8431;52.458;9.998;2023-01-15T13:43:31;7.30;99.90
16635;DHT22;8431;52.458;9.998;2023-01-15T13:46:01;7.20;99.90
16635;DHT22;8431;52.458;9.998;2023-01-15T13:48:31;7.30;99.90
16635;DHT22;8431;52.458;9.998;2023-01-15T13:51:03;7.30;99.90
16635;DHT22;8431;52.458;9.998;2023-01-15T13:53:33;7.20;99.90
16635;DHT22;8431;52.458;9.998;2023-01-15T13:56:02;7.20;99.90
16635;DHT22;8431;52.458;9.998;2023-01-15T13:58:34;7.30;99.90
16635;DHT22;8431;52.458;9.998;2023-01-15T14:01:06;7.30;99.90
16635;DHT22;8431;52.458;9.998;2023-01-15T14:03:35;7.30;99.90
16635;DHT22;8431;52.458;9.998;2023-01-15T14:06:04;7.40;99.90
16635;DHT22;8431;52.458;9.998;2023-01-15T14:08:40;7.40;99.90
16635;DHT22;8431;52.458;9.998;2023-01-15T14:14:37;7.60;99.90
16635;DHT22;8431;52.458;9.998;2023-01-15T14:17:19;7.50;99.90
16635;DHT22;8431;52.458;9.998;2023-01-15T14:20:14;7.50;99.90
16635;DHT22;8431;52.458;9.998;2023-01-15T14:23:00;7.50;99.90
16635;DHT22;8431;52.458;9.998;2023-01-15T14:25:43;7.50;99.90
16635;DHT22;8431;52.458;9.998;2023-01-15T14:28:28;7.40;99.90
16635;DHT22;8431;52.458;9.998;2023-01-15T14:34:17;7.40;99.90
16635;DHT22;8431;52.458;9.998;2023-01-15T14:36:50;7.30;99.90
16635;DHT22;8431;52.458;9.998;2023-01-15T14:39:25;7.20;99.90
16635;DHT22;8431;52.458;9.998;2023-01-15T14:42:02;7.20;99.90
16635;DHT22;8431;52.458;9.998;2023-01-15T14:44:55;7.20;99.90
16635;DHT22;8431;52.458;9.998;2023-01-15T14:47:29;7.20;99.90
16635;DHT22;8431;52.458;9.998;2023-01-15T14:50:24;7.20;99.90
16635;DHT22;8431;52.458;9.998;2023-01-15T14:52:58;7.20;99.90
16635;DHT22;8431;52.458;9.998;2023-01-15T14:55:36;7.30;99.90
16635;DHT22;8431;52.458;9.998;2023-01-15T14:58:35;7.30;99.90
16635;DHT22;8431;52.458;9.998;2023-01-15T15:01:10;7.30;99.90
16635;DHT22;8431;52.458;9.998;2023-01-15T15:03:47;7.30;99.90
16635;DHT22;8431;52.458;9.998;2023-01-15T15:06:17;7.20;99.90
16635;DHT22;8431;52.458;9.998;2023-01-15T15:08:45;7.20;99.90
16635;DHT22;8431;52.458;9.998;2023-01-15T15:11:20;7.20;99.90
16635;DHT22;8431;52.458;9.998;2023-01-15T15:14:09;7.20;99.90
16635;DHT22;8431;52.458;9.998;2023-01-15T15:16:42;7.20;99.90
16635;DHT22;8431;52.458;9.998;2023-01-15T15:19:20;7.20;99.90
16635;DHT22;8431;52.458;9.998;2023-01-15T15:21:51;7.30;99.90
16635;DHT22;8431;52.458;9.998;2023-01-15T15:24:23;7.30;99.90
16635;DHT22;8431;52.458;9.998;2023-01-15T15:26:51;7.30;99.90
16635;DHT22;8431;52.458;9.998;2023-01-15T15:29:20;7.40;99.90
16635;DHT22;8431;52.458;9.998;2023-01-15T15:31:49;7.40;99.90
16635;DHT22;8431;52.458;9.998;2023-01-15T15:34:26;7.30;99.90
16635;DHT22;8431;52.458;9.998;2023-01-15T15:36:55;7.20;99.90
16635;DHT22;8431;52.458;9.998;2023-01-15T15:39:28;7.30;99.90
16635;DHT22;8431;52.458;9.998;2023-01-15T15:41:58;7.20;99.90
16635;DHT22;8431;52.458;9.998;2023-01-15T15:44:48;7.30;99.90
16635;DHT22;8431;52.458;9.998;2023-01-15T15:47:37;7.30;99.90
16635;DHT22;8431;52.458;9.998;2023-01-15T15:50:24;7.20;99.90
16635;DHT22;8431;52.458;9.998;2023-01-15T15:52:54;7.20;99.90
16635;DHT22;8431;52.458;9.998;2023-01-15T15:55:24;7.10;99.90
16635;DHT22;8431;52.458;9.998;2023-01-15T15:57:55;7.00;99.90
16635;DHT22;8431;52.458;9.998;2023-01-15T16:00:29;7.00;99.90
16635;DHT22;8431;52.458;9.998;2023-01-15T16:02:59;7.20;99.90
16635;DHT22;8431;52.458;9.998;2023-01-15T16:05:30;7.10;99.90
16635;DHT22;8431;52.458;9.998;2023-01-15T16:08:07;7.20;99.90
16635;DHT22;8431;52.458;9.998;2023-01-15T16:10:34;7.20;99.90
16635;DHT22;8431;52.458;9.998;2023-01-15T16:13:04;7.20;99.90
16635;DHT22;8431;52.458;9.998;2023-01-15T16:15:34;7.20;99.90
16635;DHT22;8431;52.458;9.998;2023-01-15T16:18:04;7.20;99.90
16635;DHT22;8431;52.458;9.998;2023-01-15T16:20:33;7.20;99.90
16635;DHT22;8431;52.458;9.998;2023-01-15T16:23:01;7.20;99.90
16635;DHT22;8431;52.458;9.998;2023-01-15T16:25:32;7.20;99.90
16635;DHT22;8431;52.458;9.998;2023-01-15T16:28:02;7.10;99.90
16635;DHT22;8431;52.458;9.998;2023-01-15T16:30:30;7.00;99.90
16635;DHT22;8431;52.458;9.998;2023-01-15T16:33:03;7.00;99.90
16635;DHT22;8431;52.458;9.998;2023-01-15T16:35:33;7.10;99.90
16635;DHT22;8431;52.458;9.998;2023-01-15T16:38:02;7.20;99.90
16635;DHT22;8431;52.458;9.998;2023-01-15T16:40:32;7.20;99.90
16635;DHT22;8431;52.458;9.998;2023-01-15T16:43:06;7.20;99.90
16635;DHT22;8431;52.458;9.998;2023-01-15T16:45:56;7.20;99.90
16635;DHT22;8431;52.458;9.998;2023-01-15T16:48:29;7.20;99.90
16635;DHT22;8431;52.458;9.998;2023-01-15T16:51:31;7.20;99.90
16635;DHT22;8431;52.458;9.998;2023-01-15T16:54:00;7.20;99.90
16635;DHT22;8431;52.458;9.998;2023-01-15T16:56:47;7.20;99.90